sensor_id;sensor_type;location;lat;lon;timestamp;P1;durP1;ratioP1;P2;durP2;ratioP2
79204;SDS011;68632;47.512;19.104;2023-07-30T00:00:18;5.40;;;3.25;;
79204;SDS011;68632;47.512;19.104;2023-07-30T00:01:20;6.63;;;3.47;;
79204;SDS011;68632;47.512;19.104;2023-07-30T00:02:23;6.03;;;3.33;;
79204;SDS011;68632;47.512;19.104;2023-07-30T00:03:25;5.60;;;3.35;;
79204;SDS011;68632;47.512;19.104;2023-07-30T00:04:27;4.97;;;3.72;;
79204;SDS011;68632;47.512;19.104;2023-07-30T00:05:29;15.27;;;3.55;;
79204;SDS011;68632;47.512;19.104;2023-07-30T00:06:32;6.10;;;3.63;;
79204;SDS011;68632;47.512;19.104;2023-07-30T00:07:34;5.47;;;3.67;;
79204;SDS011;68632;47.512;19.104;2023-07-30T00:08:36;5.28;;;3.47;;
79204;SDS011;68632;47.512;19.104;2023-07-30T00:09:38;5.25;;;3.33;;
79204;SDS011;68632;47.512;19.104;2023-07-30T00:10:41;4.82;;;3.22;;
79204;SDS011;68632;47.512;19.104;2023-07-30T00:11:43;5.70;;;3.00;;
79204;SDS011;68632;47.512;19.104;2023-07-30T00:12:45;4.70;;;3.20;;
79204;SDS011;68632;47.512;19.104;2023-07-30T00:13:47;5.40;;;3.50;;
79204;SDS011;68632;47.512;19.104;2023-07-30T00:14:49;6.85;;;3.30;;
79204;SDS011;68632;47.512;19.104;2023-07-30T00:15:51;5.68;;;3.25;;
79204;SDS011;68632;47.512;19.104;2023-07-30T00:16:54;4.28;;;3.42;;
79204;SDS011;68632;47.512;19.104;2023-07-30T00:17:56;5.38;;;3.50;;
79204;SDS011;68632;47.512;19.104;2023-07-30T00:18:58;5.68;;;3.72;;
79204;SDS011;68632;47.512;19.104;2023-07-30T00:20:00;8.30;;;3.63;;
79204;SDS011;68632;47.512;19.104;2023-07-30T00:21:02;5.38;;;3.58;;
79204;SDS011;68632;47.512;19.104;2023-07-30T00:22:05;6.80;;;3.55;;
79204;SDS011;68632;47.512;19.104;2023-07-30T00:23:07;6.38;;;3.55;;
79204;SDS011;68632;47.512;19.104;2023-07-30T00:24:09;5.63;;;3.85;;
79204;SDS011;68632;47.512;19.104;2023-07-30T00:25:11;4.88;;;3.13;;
79204;SDS011;68632;47.512;19.104;2023-07-30T00:26:14;5.20;;;3.20;;
79204;SDS011;68632;47.512;19.104;2023-07-30T00:27:16;5.55;;;3.53;;
79204;SDS011;68632;47.512;19.104;2023-07-30T00:28:18;6.93;;;3.88;;
79204;SDS011;68632;47.512;19.104;2023-07-30T00:29:20;7.97;;;3.60;;
79204;SDS011;68632;47.512;19.104;2023-07-30T00:30:22;5.88;;;3.38;;
79204;SDS011;68632;47.512;19.104;2023-07-30T00:31:25;5.28;;;3.40;;
79204;SDS011;68632;47.512;19.104;2023-07-30T00:32:27;4.90;;;3.30;;
79204;SDS011;68632;47.512;19.104;2023-07-30T00:33:29;4.20;;;3.08;;
79204;SDS011;68632;47.512;19.104;2023-07-30T00:34:31;6.90;;;3.28;;
79204;SDS011;68632;47.512;19.104;2023-07-30T00:35:33;5.55;;;3.33;;
79204;SDS011;68632;47.512;19.104;2023-07-30T00:36:36;5.00;;;3.22;;
79204;SDS011;68632;47.512;19.104;2023-07-30T00:37:38;4.95;;;2.97;;
79204;SDS011;68632;47.512;19.104;2023-07-30T00:38:40;5.22;;;2.75;;
79204;SDS011;68632;47.512;19.104;2023-07-30T00:39:42;4.95;;;3.05;;
79204;SDS011;68632;47.512;19.104;2023-07-30T00:40:44;4.20;;;2.83;;
79204;SDS011;68632;47.512;19.104;2023-07-30T00:41:46;4.78;;;2.80;;
79204;SDS011;68632;47.512;19.104;2023-07-30T00:42:48;4.47;;;3.08;;
79204;SDS011;68632;47.512;19.104;2023-07-30T00:43:51;3.45;;;2.28;;
79204;SDS011;68632;47.512;19.104;2023-07-30T00:44:53;6.05;;;2.35;;
79204;SDS011;68632;47.512;19.104;2023-07-30T00:45:55;4.25;;;2.72;;
79204;SDS011;68632;47.512;19.104;2023-07-30T00:46:57;6.22;;;2.70;;
79204;SDS011;68632;47.512;19.104;2023-07-30T00:48:00;3.45;;;2.25;;
79204;SDS011;68632;47.512;19.104;2023-07-30T00:49:02;3.85;;;2.63;;
79204;SDS011;68632;47.512;19.104;2023-07-30T00:50:05;4.40;;;2.75;;
79204;SDS011;68632;47.512;19.104;2023-07-30T00:51:08;4.57;;;2.40;;
79204;SDS011;68632;47.512;19.104;2023-07-30T00:52:11;3.53;;;2.35;;
79204;SDS011;68632;47.512;19.104;2023-07-30T00:53:14;3.83;;;2.30;;
79204;SDS011;68632;47.512;19.104;2023-07-30T00:54:17;4.50;;;2.30;;
79204;SDS011;68632;47.512;19.104;2023-07-30T00:55:19;3.70;;;2.38;;
79204;SDS011;68632;47.512;19.104;2023-07-30T00:56:22;5.13;;;2.70;;
79204;SDS011;68632;47.512;19.104;2023-07-30T00:57:24;4.03;;;2.50;;
79204;SDS011;68632;47.512;19.104;2023-07-30T00:58:26;4.63;;;2.45;;
79204;SDS011;68632;47.512;19.104;2023-07-30T00:59:29;3.90;;;2.47;;
79204;SDS011;68632;47.512;19.104;2023-07-30T01:00:31;3.22;;;2.17;;
79204;SDS011;68632;47.512;19.104;2023-07-30T01:01:34;4.75;;;2.55;;
79204;SDS011;68632;47.512;19.104;2023-07-30T01:02:38;4.00;;;2.20;;
79204;SDS011;68632;47.512;19.104;2023-07-30T01:03:40;3.88;;;2.30;;
79204;SDS011;68632;47.512;19.104;2023-07-30T01:04:42;3.83;;;2.40;;
79204;SDS011;68632;47.512;19.104;2023-07-30T01:05:45;5.35;;;2.60;;
79204;SDS011;68632;47.512;19.104;2023-07-30T01:06:48;4.13;;;2.30;;
79204;SDS011;68632;47.512;19.104;2023-07-30T01:07:50;3.55;;;2.10;;
79204;SDS011;68632;47.512;19.104;2023-07-30T01:08:52;3.17;;;2.10;;
79204;SDS011;68632;47.512;19.104;2023-07-30T01:09:54;3.88;;;2.30;;
79204;SDS011;68632;47.512;19.104;2023-07-30T01:10:57;3.90;;;2.42;;
79204;SDS011;68632;47.512;19.104;2023-07-30T01:11:59;3.40;;;2.28;;
79204;SDS011;68632;47.512;19.104;2023-07-30T01:13:02;4.03;;;2.20;;
79204;SDS011;68632;47.512;19.104;2023-07-30T01:14:05;4.13;;;2.30;;
79204;SDS011;68632;47.512;19.104;2023-07-30T01:15:08;3.90;;;2.50;;
79204;SDS011;68632;47.512;19.104;2023-07-30T01:16:11;3.42;;;2.13;;
79204;SDS011;68632;47.512;19.104;2023-07-30T01:17:13;4.15;;;2.38;;
79204;SDS011;68632;47.512;19.104;2023-07-30T01:18:15;3.78;;;2.60;;
79204;SDS011;68632;47.512;19.104;2023-07-30T01:19:18;3.55;;;2.33;;
79204;SDS011;68632;47.512;19.104;2023-07-30T01:20:20;4.20;;;2.40;;
79204;SDS011;68632;47.512;19.104;2023-07-30T01:21:23;3.58;;;2.17;;
79204;SDS011;68632;47.512;19.104;2023-07-30T01:22:25;4.15;;;2.65;;
79204;SDS011;68632;47.512;19.104;2023-07-30T01:23:27;3.33;;;2.30;;
79204;SDS011;68632;47.512;19.104;2023-07-30T01:24:29;3.10;;;2.13;;
79204;SDS011;68632;47.512;19.104;2023-07-30T01:25:33;3.60;;;2.50;;
79204;SDS011;68632;47.512;19.104;2023-07-30T01:26:44;3.10;;;2.28;;
79204;SDS011;68632;47.512;19.104;2023-07-30T01:28:53;5.65;;;2.80;;
79204;SDS011;68632;47.512;19.104;2023-07-30T01:31:22;3.63;;;2.40;;
79204;SDS011;68632;47.512;19.104;2023-07-30T01:32:27;3.80;;;2.50;;
79204;SDS011;68632;47.512;19.104;2023-07-30T01:33:30;3.63;;;2.30;;
79204;SDS011;68632;47.512;19.104;2023-07-30T01:34:36;3.50;;;2.60;;
79204;SDS011;68632;47.512;19.104;2023-07-30T01:35:39;4.47;;;2.38;;
79204;SDS011;68632;47.512;19.104;2023-07-30T01:36:43;4.47;;;2.65;;
79204;SDS011;68632;47.512;19.104;2023-07-30T01:37:45;3.65;;;2.50;;
79204;SDS011;68632;47.512;19.104;2023-07-30T01:38:49;4.80;;;2.55;;
79204;SDS011;68632;47.512;19.104;2023-07-30T01:39:52;3.97;;;2.10;;
79204;SDS011;68632;47.512;19.104;2023-07-30T01:40:55;3.30;;;2.17;;
79204;SDS011;68632;47.512;19.104;2023-07-30T01:41:57;3.38;;;2.08;;
79204;SDS011;68632;47.512;19.104;2023-07-30T01:42:59;4.03;;;2.42;;
79204;SDS011;68632;47.512;19.104;2023-07-30T01:44:01;3.75;;;2.40;;
79204;SDS011;68632;47.512;19.104;2023-07-30T01:45:04;4.35;;;2.20;;
79204;SDS011;68632;47.512;19.104;2023-07-30T01:46:07;3.38;;;2.33;;
79204;SDS011;68632;47.512;19.104;2023-07-30T01:47:09;3.83;;;2.58;;
79204;SDS011;68632;47.512;19.104;2023-07-30T01:48:12;4.55;;;2.50;;
79204;SDS011;68632;47.512;19.104;2023-07-30T01:49:14;3.60;;;2.42;;
79204;SDS011;68632;47.512;19.104;2023-07-30T01:50:16;3.78;;;2.58;;
79204;SDS011;68632;47.512;19.104;2023-07-30T01:51:18;4.90;;;2.80;;
79204;SDS011;68632;47.512;19.104;2023-07-30T01:52:20;6.38;;;2.78;;
79204;SDS011;68632;47.512;19.104;2023-07-30T01:53:23;4.07;;;2.42;;
79204;SDS011;68632;47.512;19.104;2023-07-30T01:54:25;3.50;;;2.47;;
79204;SDS011;68632;47.512;19.104;2023-07-30T01:55:27;4.97;;;2.70;;
79204;SDS011;68632;47.512;19.104;2023-07-30T01:56:29;3.78;;;2.60;;
79204;SDS011;68632;47.512;19.104;2023-07-30T01:57:31;3.65;;;2.55;;
79204;SDS011;68632;47.512;19.104;2023-07-30T01:58:33;3.55;;;2.50;;
79204;SDS011;68632;47.512;19.104;2023-07-30T01:59:36;5.03;;;2.85;;
79204;SDS011;68632;47.512;19.104;2023-07-30T02:00:38;5.00;;;2.78;;
79204;SDS011;68632;47.512;19.104;2023-07-30T02:01:41;4.53;;;2.03;;
79204;SDS011;68632;47.512;19.104;2023-07-30T02:02:43;4.65;;;2.72;;
79204;SDS011;68632;47.512;19.104;2023-07-30T02:03:46;3.60;;;2.40;;
79204;SDS011;68632;47.512;19.104;2023-07-30T02:04:48;3.47;;;2.35;;
79204;SDS011;68632;47.512;19.104;2023-07-30T02:05:50;4.57;;;2.63;;
79204;SDS011;68632;47.512;19.104;2023-07-30T02:06:52;3.78;;;2.40;;
79204;SDS011;68632;47.512;19.104;2023-07-30T02:07:54;4.85;;;2.75;;
79204;SDS011;68632;47.512;19.104;2023-07-30T02:08:57;5.50;;;2.65;;
79204;SDS011;68632;47.512;19.104;2023-07-30T02:09:59;4.03;;;2.53;;
79204;SDS011;68632;47.512;19.104;2023-07-30T02:11:02;3.25;;;2.28;;
79204;SDS011;68632;47.512;19.104;2023-07-30T02:12:04;3.90;;;2.63;;
79204;SDS011;68632;47.512;19.104;2023-07-30T02:13:06;3.50;;;2.33;;
79204;SDS011;68632;47.512;19.104;2023-07-30T02:14:09;5.13;;;2.53;;
79204;SDS011;68632;47.512;19.104;2023-07-30T02:15:11;4.50;;;2.40;;
79204;SDS011;68632;47.512;19.104;2023-07-30T02:16:13;4.78;;;2.53;;
79204;SDS011;68632;47.512;19.104;2023-07-30T02:17:16;4.80;;;2.60;;
79204;SDS011;68632;47.512;19.104;2023-07-30T02:18:18;4.10;;;2.42;;
79204;SDS011;68632;47.512;19.104;2023-07-30T02:19:20;3.63;;;2.67;;
79204;SDS011;68632;47.512;19.104;2023-07-30T02:20:22;3.95;;;2.10;;
79204;SDS011;68632;47.512;19.104;2023-07-30T02:21:26;4.68;;;2.90;;
79204;SDS011;68632;47.512;19.104;2023-07-30T02:22:28;4.45;;;2.42;;
79204;SDS011;68632;47.512;19.104;2023-07-30T02:23:30;3.47;;;2.40;;
79204;SDS011;68632;47.512;19.104;2023-07-30T02:24:32;4.00;;;2.50;;
79204;SDS011;68632;47.512;19.104;2023-07-30T02:25:35;5.03;;;2.45;;
79204;SDS011;68632;47.512;19.104;2023-07-30T02:26:40;7.22;;;2.60;;
79204;SDS011;68632;47.512;19.104;2023-07-30T02:27:42;4.35;;;2.83;;
79204;SDS011;68632;47.512;19.104;2023-07-30T02:28:44;3.85;;;2.45;;
79204;SDS011;68632;47.512;19.104;2023-07-30T02:29:46;4.45;;;2.40;;
79204;SDS011;68632;47.512;19.104;2023-07-30T02:30:48;3.15;;;2.38;;
79204;SDS011;68632;47.512;19.104;2023-07-30T02:31:50;3.92;;;2.70;;
79204;SDS011;68632;47.512;19.104;2023-07-30T02:32:53;4.40;;;2.63;;
79204;SDS011;68632;47.512;19.104;2023-07-30T02:33:55;3.47;;;2.40;;
79204;SDS011;68632;47.512;19.104;2023-07-30T02:34:57;3.83;;;2.28;;
79204;SDS011;68632;47.512;19.104;2023-07-30T02:36:00;3.90;;;2.67;;
79204;SDS011;68632;47.512;19.104;2023-07-30T02:37:02;4.35;;;2.40;;
79204;SDS011;68632;47.512;19.104;2023-07-30T02:38:04;4.47;;;2.78;;
79204;SDS011;68632;47.512;19.104;2023-07-30T02:39:07;4.22;;;2.85;;
79204;SDS011;68632;47.512;19.104;2023-07-30T02:40:09;4.13;;;3.03;;
79204;SDS011;68632;47.512;19.104;2023-07-30T02:41:12;3.67;;;2.50;;
79204;SDS011;68632;47.512;19.104;2023-07-30T02:42:14;3.47;;;2.50;;
79204;SDS011;68632;47.512;19.104;2023-07-30T02:43:16;4.25;;;2.75;;
79204;SDS011;68632;47.512;19.104;2023-07-30T02:44:18;3.83;;;2.38;;
79204;SDS011;68632;47.512;19.104;2023-07-30T02:45:21;3.92;;;2.30;;
79204;SDS011;68632;47.512;19.104;2023-07-30T02:46:23;6.55;;;2.65;;
79204;SDS011;68632;47.512;19.104;2023-07-30T02:47:25;3.58;;;2.40;;
79204;SDS011;68632;47.512;19.104;2023-07-30T02:48:27;4.43;;;3.13;;
79204;SDS011;68632;47.512;19.104;2023-07-30T02:49:30;4.35;;;2.83;;
79204;SDS011;68632;47.512;19.104;2023-07-30T02:50:32;5.25;;;2.50;;
79204;SDS011;68632;47.512;19.104;2023-07-30T02:51:34;3.60;;;2.65;;
79204;SDS011;68632;47.512;19.104;2023-07-30T02:52:37;5.28;;;2.55;;
79204;SDS011;68632;47.512;19.104;2023-07-30T02:53:39;3.45;;;2.33;;
79204;SDS011;68632;47.512;19.104;2023-07-30T02:54:41;4.70;;;2.70;;
79204;SDS011;68632;47.512;19.104;2023-07-30T02:55:43;4.97;;;2.70;;
79204;SDS011;68632;47.512;19.104;2023-07-30T02:56:45;3.40;;;2.35;;
79204;SDS011;68632;47.512;19.104;2023-07-30T02:57:48;4.80;;;2.42;;
79204;SDS011;68632;47.512;19.104;2023-07-30T02:58:50;4.53;;;2.40;;
79204;SDS011;68632;47.512;19.104;2023-07-30T02:59:52;3.65;;;2.63;;
79204;SDS011;68632;47.512;19.104;2023-07-30T03:00:54;4.78;;;2.72;;
79204;SDS011;68632;47.512;19.104;2023-07-30T03:01:56;3.67;;;2.28;;
79204;SDS011;68632;47.512;19.104;2023-07-30T03:02:59;4.78;;;2.85;;
79204;SDS011;68632;47.512;19.104;2023-07-30T03:04:01;3.35;;;2.47;;
79204;SDS011;68632;47.512;19.104;2023-07-30T03:05:04;4.28;;;2.58;;
79204;SDS011;68632;47.512;19.104;2023-07-30T03:06:07;4.20;;;2.63;;
79204;SDS011;68632;47.512;19.104;2023-07-30T03:07:09;4.88;;;2.65;;
79204;SDS011;68632;47.512;19.104;2023-07-30T03:08:11;5.10;;;2.72;;
79204;SDS011;68632;47.512;19.104;2023-07-30T03:09:13;4.25;;;2.90;;
79204;SDS011;68632;47.512;19.104;2023-07-30T03:10:16;5.05;;;2.70;;
79204;SDS011;68632;47.512;19.104;2023-07-30T03:11:18;3.95;;;2.70;;
79204;SDS011;68632;47.512;19.104;2023-07-30T03:12:20;3.78;;;2.90;;
79204;SDS011;68632;47.512;19.104;2023-07-30T03:13:22;4.20;;;2.53;;
79204;SDS011;68632;47.512;19.104;2023-07-30T03:14:24;4.82;;;2.78;;
79204;SDS011;68632;47.512;19.104;2023-07-30T03:15:27;4.13;;;2.70;;
79204;SDS011;68632;47.512;19.104;2023-07-30T03:16:29;5.05;;;2.83;;
79204;SDS011;68632;47.512;19.104;2023-07-30T03:17:31;4.70;;;2.95;;
79204;SDS011;68632;47.512;19.104;2023-07-30T03:18:33;4.45;;;2.88;;
79204;SDS011;68632;47.512;19.104;2023-07-30T03:19:35;4.88;;;2.60;;
79204;SDS011;68632;47.512;19.104;2023-07-30T03:20:37;4.45;;;2.72;;
79204;SDS011;68632;47.512;19.104;2023-07-30T03:21:40;4.00;;;2.88;;
79204;SDS011;68632;47.512;19.104;2023-07-30T03:22:42;4.95;;;2.72;;
79204;SDS011;68632;47.512;19.104;2023-07-30T03:23:44;4.65;;;2.60;;
79204;SDS011;68632;47.512;19.104;2023-07-30T03:24:46;3.63;;;2.72;;
79204;SDS011;68632;47.512;19.104;2023-07-30T03:25:49;4.32;;;2.85;;
79204;SDS011;68632;47.512;19.104;2023-07-30T03:26:51;5.55;;;2.80;;
79204;SDS011;68632;47.512;19.104;2023-07-30T03:27:53;3.63;;;2.42;;
79204;SDS011;68632;47.512;19.104;2023-07-30T03:28:56;4.47;;;2.65;;
79204;SDS011;68632;47.512;19.104;2023-07-30T03:29:58;5.47;;;2.92;;
79204;SDS011;68632;47.512;19.104;2023-07-30T03:31:00;4.63;;;2.60;;
79204;SDS011;68632;47.512;19.104;2023-07-30T03:32:02;4.90;;;3.20;;
79204;SDS011;68632;47.512;19.104;2023-07-30T03:33:04;6.10;;;2.90;;
79204;SDS011;68632;47.512;19.104;2023-07-30T03:34:07;4.68;;;2.60;;
79204;SDS011;68632;47.512;19.104;2023-07-30T03:35:09;5.55;;;2.85;;
79204;SDS011;68632;47.512;19.104;2023-07-30T03:36:11;5.07;;;2.58;;
79204;SDS011;68632;47.512;19.104;2023-07-30T03:37:17;5.65;;;2.75;;
79204;SDS011;68632;47.512;19.104;2023-07-30T03:38:19;3.97;;;2.30;;
79204;SDS011;68632;47.512;19.104;2023-07-30T03:39:21;6.03;;;2.88;;
79204;SDS011;68632;47.512;19.104;2023-07-30T03:40:23;6.90;;;3.40;;
79204;SDS011;68632;47.512;19.104;2023-07-30T03:41:26;6.97;;;2.50;;
79204;SDS011;68632;47.512;19.104;2023-07-30T03:42:28;4.43;;;2.60;;
79204;SDS011;68632;47.512;19.104;2023-07-30T03:43:30;5.25;;;2.83;;
79204;SDS011;68632;47.512;19.104;2023-07-30T03:44:33;4.18;;;2.67;;
79204;SDS011;68632;47.512;19.104;2023-07-30T03:45:35;4.60;;;2.80;;
79204;SDS011;68632;47.512;19.104;2023-07-30T03:46:37;4.50;;;2.67;;
79204;SDS011;68632;47.512;19.104;2023-07-30T03:47:39;3.83;;;2.70;;
79204;SDS011;68632;47.512;19.104;2023-07-30T03:48:41;5.60;;;2.90;;
79204;SDS011;68632;47.512;19.104;2023-07-30T03:49:43;5.15;;;2.95;;
79204;SDS011;68632;47.512;19.104;2023-07-30T03:50:45;4.45;;;2.83;;
79204;SDS011;68632;47.512;19.104;2023-07-30T03:51:48;4.80;;;2.58;;
79204;SDS011;68632;47.512;19.104;2023-07-30T03:52:50;6.30;;;2.80;;
79204;SDS011;68632;47.512;19.104;2023-07-30T03:53:52;5.22;;;2.53;;
79204;SDS011;68632;47.512;19.104;2023-07-30T03:54:54;4.63;;;2.88;;
79204;SDS011;68632;47.512;19.104;2023-07-30T03:55:56;6.00;;;2.85;;
79204;SDS011;68632;47.512;19.104;2023-07-30T03:56:59;4.40;;;2.92;;
79204;SDS011;68632;47.512;19.104;2023-07-30T03:58:01;4.72;;;3.13;;
79204;SDS011;68632;47.512;19.104;2023-07-30T03:59:03;6.88;;;3.00;;
79204;SDS011;68632;47.512;19.104;2023-07-30T04:00:05;5.45;;;2.67;;
79204;SDS011;68632;47.512;19.104;2023-07-30T04:01:08;4.00;;;2.30;;
79204;SDS011;68632;47.512;19.104;2023-07-30T04:02:11;5.53;;;3.15;;
79204;SDS011;68632;47.512;19.104;2023-07-30T04:03:17;4.97;;;3.20;;
79204;SDS011;68632;47.512;19.104;2023-07-30T04:04:19;4.38;;;2.90;;
79204;SDS011;68632;47.512;19.104;2023-07-30T04:05:21;5.15;;;3.05;;
79204;SDS011;68632;47.512;19.104;2023-07-30T04:06:24;4.43;;;2.92;;
79204;SDS011;68632;47.512;19.104;2023-07-30T04:07:26;5.15;;;2.75;;
79204;SDS011;68632;47.512;19.104;2023-07-30T04:08:28;5.68;;;3.38;;
79204;SDS011;68632;47.512;19.104;2023-07-30T04:09:30;4.72;;;2.65;;
79204;SDS011;68632;47.512;19.104;2023-07-30T04:10:32;5.43;;;2.83;;
79204;SDS011;68632;47.512;19.104;2023-07-30T04:11:34;3.85;;;2.78;;
79204;SDS011;68632;47.512;19.104;2023-07-30T04:12:37;4.93;;;3.22;;
79204;SDS011;68632;47.512;19.104;2023-07-30T04:13:39;7.10;;;3.05;;
79204;SDS011;68632;47.512;19.104;2023-07-30T04:14:42;7.85;;;3.10;;
79204;SDS011;68632;47.512;19.104;2023-07-30T04:15:46;4.13;;;2.80;;
79204;SDS011;68632;47.512;19.104;2023-07-30T04:17:51;4.47;;;3.00;;
79204;SDS011;68632;47.512;19.104;2023-07-30T04:18:53;4.03;;;2.95;;
79204;SDS011;68632;47.512;19.104;2023-07-30T04:19:56;5.32;;;2.72;;
79204;SDS011;68632;47.512;19.104;2023-07-30T04:20:58;7.28;;;3.08;;
79204;SDS011;68632;47.512;19.104;2023-07-30T04:22:00;4.68;;;2.90;;
79204;SDS011;68632;47.512;19.104;2023-07-30T04:23:02;5.35;;;3.00;;
79204;SDS011;68632;47.512;19.104;2023-07-30T04:24:04;4.28;;;2.92;;
79204;SDS011;68632;47.512;19.104;2023-07-30T04:25:07;5.10;;;2.83;;
79204;SDS011;68632;47.512;19.104;2023-07-30T04:26:09;4.22;;;2.90;;
79204;SDS011;68632;47.512;19.104;2023-07-30T04:27:12;4.28;;;2.85;;
79204;SDS011;68632;47.512;19.104;2023-07-30T04:28:14;8.75;;;3.10;;
79204;SDS011;68632;47.512;19.104;2023-07-30T04:29:16;5.50;;;3.28;;
79204;SDS011;68632;47.512;19.104;2023-07-30T04:30:18;4.32;;;2.95;;
79204;SDS011;68632;47.512;19.104;2023-07-30T04:31:20;4.25;;;3.00;;
79204;SDS011;68632;47.512;19.104;2023-07-30T04:32:23;5.53;;;2.97;;
79204;SDS011;68632;47.512;19.104;2023-07-30T04:33:25;7.28;;;2.92;;
79204;SDS011;68632;47.512;19.104;2023-07-30T04:34:28;4.70;;;3.10;;
79204;SDS011;68632;47.512;19.104;2023-07-30T04:35:30;5.30;;;2.90;;
79204;SDS011;68632;47.512;19.104;2023-07-30T04:36:32;4.55;;;3.20;;
79204;SDS011;68632;47.512;19.104;2023-07-30T04:37:35;4.60;;;2.80;;
79204;SDS011;68632;47.512;19.104;2023-07-30T04:38:37;4.78;;;2.85;;
79204;SDS011;68632;47.512;19.104;2023-07-30T04:39:39;3.60;;;2.60;;
79204;SDS011;68632;47.512;19.104;2023-07-30T04:40:41;4.68;;;3.00;;
79204;SDS011;68632;47.512;19.104;2023-07-30T04:41:43;4.35;;;2.70;;
79204;SDS011;68632;47.512;19.104;2023-07-30T04:42:46;3.97;;;2.53;;
79204;SDS011;68632;47.512;19.104;2023-07-30T04:43:48;4.57;;;2.70;;
79204;SDS011;68632;47.512;19.104;2023-07-30T04:44:50;5.25;;;2.78;;
79204;SDS011;68632;47.512;19.104;2023-07-30T04:45:52;6.40;;;3.28;;
79204;SDS011;68632;47.512;19.104;2023-07-30T04:46:55;4.72;;;2.75;;
79204;SDS011;68632;47.512;19.104;2023-07-30T04:47:57;4.45;;;2.50;;
79204;SDS011;68632;47.512;19.104;2023-07-30T04:49:01;3.63;;;2.60;;
79204;SDS011;68632;47.512;19.104;2023-07-30T04:50:05;4.53;;;2.88;;
79204;SDS011;68632;47.512;19.104;2023-07-30T04:51:07;4.50;;;2.35;;
79204;SDS011;68632;47.512;19.104;2023-07-30T04:52:09;4.43;;;2.90;;
79204;SDS011;68632;47.512;19.104;2023-07-30T04:53:12;4.32;;;2.70;;
79204;SDS011;68632;47.512;19.104;2023-07-30T04:54:14;6.05;;;2.83;;
79204;SDS011;68632;47.512;19.104;2023-07-30T04:55:16;3.92;;;2.63;;
79204;SDS011;68632;47.512;19.104;2023-07-30T04:56:18;4.15;;;2.80;;
79204;SDS011;68632;47.512;19.104;2023-07-30T04:57:21;4.35;;;2.78;;
79204;SDS011;68632;47.512;19.104;2023-07-30T04:58:23;3.90;;;2.50;;
79204;SDS011;68632;47.512;19.104;2023-07-30T04:59:25;5.20;;;2.90;;
79204;SDS011;68632;47.512;19.104;2023-07-30T05:00:27;5.15;;;2.70;;
79204;SDS011;68632;47.512;19.104;2023-07-30T05:01:29;6.90;;;3.00;;
79204;SDS011;68632;47.512;19.104;2023-07-30T05:02:33;4.97;;;2.78;;
79204;SDS011;68632;47.512;19.104;2023-07-30T05:03:35;4.82;;;2.70;;
79204;SDS011;68632;47.512;19.104;2023-07-30T05:04:37;4.88;;;3.00;;
79204;SDS011;68632;47.512;19.104;2023-07-30T05:05:40;4.85;;;3.00;;
79204;SDS011;68632;47.512;19.104;2023-07-30T05:06:42;4.15;;;2.92;;
79204;SDS011;68632;47.512;19.104;2023-07-30T05:07:44;4.20;;;3.00;;
79204;SDS011;68632;47.512;19.104;2023-07-30T05:08:47;4.38;;;2.90;;
79204;SDS011;68632;47.512;19.104;2023-07-30T05:09:49;3.95;;;2.67;;
79204;SDS011;68632;47.512;19.104;2023-07-30T05:10:51;4.18;;;2.70;;
79204;SDS011;68632;47.512;19.104;2023-07-30T05:11:53;6.40;;;2.72;;
79204;SDS011;68632;47.512;19.104;2023-07-30T05:12:55;5.30;;;2.83;;
79204;SDS011;68632;47.512;19.104;2023-07-30T05:13:58;4.43;;;2.80;;
79204;SDS011;68632;47.512;19.104;2023-07-30T05:15:00;4.63;;;2.83;;
79204;SDS011;68632;47.512;19.104;2023-07-30T05:16:02;8.38;;;3.00;;
79204;SDS011;68632;47.512;19.104;2023-07-30T05:17:05;5.40;;;3.47;;
79204;SDS011;68632;47.512;19.104;2023-07-30T05:18:07;4.82;;;2.75;;
79204;SDS011;68632;47.512;19.104;2023-07-30T05:19:09;4.50;;;3.00;;
79204;SDS011;68632;47.512;19.104;2023-07-30T05:20:11;5.95;;;3.00;;
79204;SDS011;68632;47.512;19.104;2023-07-30T05:21:14;5.22;;;2.75;;
79204;SDS011;68632;47.512;19.104;2023-07-30T05:22:16;4.72;;;3.03;;
79204;SDS011;68632;47.512;19.104;2023-07-30T05:23:19;4.93;;;2.70;;
79204;SDS011;68632;47.512;19.104;2023-07-30T05:24:21;3.88;;;2.70;;
79204;SDS011;68632;47.512;19.104;2023-07-30T05:25:23;3.97;;;2.78;;
79204;SDS011;68632;47.512;19.104;2023-07-30T05:26:25;4.57;;;3.28;;
79204;SDS011;68632;47.512;19.104;2023-07-30T05:27:27;5.68;;;2.80;;
79204;SDS011;68632;47.512;19.104;2023-07-30T05:28:30;4.43;;;2.72;;
79204;SDS011;68632;47.512;19.104;2023-07-30T05:29:33;4.50;;;2.72;;
79204;SDS011;68632;47.512;19.104;2023-07-30T05:30:35;6.20;;;3.00;;
79204;SDS011;68632;47.512;19.104;2023-07-30T05:31:37;4.00;;;2.53;;
79204;SDS011;68632;47.512;19.104;2023-07-30T05:32:40;3.80;;;2.80;;
79204;SDS011;68632;47.512;19.104;2023-07-30T05:33:42;4.72;;;2.50;;
79204;SDS011;68632;47.512;19.104;2023-07-30T05:34:45;3.97;;;2.65;;
79204;SDS011;68632;47.512;19.104;2023-07-30T05:35:47;4.97;;;2.85;;
79204;SDS011;68632;47.512;19.104;2023-07-30T05:36:49;6.20;;;2.88;;
79204;SDS011;68632;47.512;19.104;2023-07-30T05:37:51;4.55;;;2.50;;
79204;SDS011;68632;47.512;19.104;2023-07-30T05:38:54;3.58;;;2.50;;
79204;SDS011;68632;47.512;19.104;2023-07-30T05:39:56;4.50;;;3.00;;
79204;SDS011;68632;47.512;19.104;2023-07-30T05:40:58;4.70;;;2.72;;
79204;SDS011;68632;47.512;19.104;2023-07-30T05:42:00;3.45;;;2.65;;
79204;SDS011;68632;47.512;19.104;2023-07-30T05:43:02;4.13;;;2.58;;
79204;SDS011;68632;47.512;19.104;2023-07-30T05:44:06;4.32;;;2.90;;
79204;SDS011;68632;47.512;19.104;2023-07-30T05:45:08;4.72;;;2.47;;
79204;SDS011;68632;47.512;19.104;2023-07-30T05:46:10;4.35;;;2.60;;
79204;SDS011;68632;47.512;19.104;2023-07-30T05:47:13;5.32;;;2.90;;
79204;SDS011;68632;47.512;19.104;2023-07-30T05:48:15;4.40;;;2.83;;
79204;SDS011;68632;47.512;19.104;2023-07-30T05:49:17;4.68;;;2.67;;
79204;SDS011;68632;47.512;19.104;2023-07-30T05:50:19;3.20;;;2.20;;
79204;SDS011;68632;47.512;19.104;2023-07-30T05:51:22;4.50;;;2.50;;
79204;SDS011;68632;47.512;19.104;2023-07-30T05:52:24;4.68;;;3.03;;
79204;SDS011;68632;47.512;19.104;2023-07-30T05:53:26;5.72;;;2.90;;
79204;SDS011;68632;47.512;19.104;2023-07-30T05:54:28;4.43;;;2.95;;
79204;SDS011;68632;47.512;19.104;2023-07-30T05:55:30;4.22;;;2.92;;
79204;SDS011;68632;47.512;19.104;2023-07-30T05:56:33;5.10;;;2.90;;
79204;SDS011;68632;47.512;19.104;2023-07-30T05:57:35;3.63;;;2.55;;
79204;SDS011;68632;47.512;19.104;2023-07-30T05:58:37;4.60;;;3.10;;
79204;SDS011;68632;47.512;19.104;2023-07-30T05:59:39;4.78;;;2.60;;
79204;SDS011;68632;47.512;19.104;2023-07-30T06:00:41;5.95;;;2.90;;
79204;SDS011;68632;47.512;19.104;2023-07-30T06:01:43;3.55;;;2.50;;
79204;SDS011;68632;47.512;19.104;2023-07-30T06:02:46;4.38;;;3.15;;
79204;SDS011;68632;47.512;19.104;2023-07-30T06:03:48;4.32;;;2.92;;
79204;SDS011;68632;47.512;19.104;2023-07-30T06:04:50;4.47;;;2.95;;
79204;SDS011;68632;47.512;19.104;2023-07-30T06:05:53;4.95;;;2.63;;
79204;SDS011;68632;47.512;19.104;2023-07-30T06:06:55;6.93;;;2.72;;
79204;SDS011;68632;47.512;19.104;2023-07-30T06:07:57;6.43;;;2.78;;
79204;SDS011;68632;47.512;19.104;2023-07-30T06:09:01;7.45;;;2.95;;
79204;SDS011;68632;47.512;19.104;2023-07-30T06:10:03;4.43;;;2.83;;
79204;SDS011;68632;47.512;19.104;2023-07-30T06:11:06;4.63;;;2.88;;
79204;SDS011;68632;47.512;19.104;2023-07-30T06:12:08;3.72;;;2.60;;
79204;SDS011;68632;47.512;19.104;2023-07-30T06:13:10;4.95;;;2.83;;